Record high temperature 39.4°C Record low temperature -14.6°C Record high gust 68.5 km/h Record high average 47.2 km/h Record daily rain 55.3 mm Record low windchill -17.5°C Record high barometer 1045.0 hPa Record low barometer 970.0 hPa
Daily high pressure 1027.0 hPa Daily low pressure 1017.0 hPa Daily low windchill 7.6°C Daily high heat index 12.7°C Daily high gust speed 27.8 kmh S Daily high average speed 19.1 kmh SSW

This page is updated from recent data collected by a WMR200 weather station Use the Reload or Refresh facility on your browser to retrieve the latest data.

Status report of weather station: Bienvenue sur la Station Météo de Godarville



Weather report/warning/Metars

Alexandroupoli Airport , Greece (LGAL) 40-51N 025-55E 3M
Nov 13, 2018 - 12:20 PM EST / 2018.11.13 1720 UTC
Wind: from the NE (050 degrees) at 15 MPH (13 KT):0
Visibility: greater than 7 mile(s):0
Sky conditions: partly cloudy
Temperature: 55 F (13 C)
Dew Point: 42 F (6 C)
Relative Humidity: 62%
Pressure (altimeter): 30.39 in. Hg (1029 hPa)
ob: LGAL 131720Z 05013KT 9999 FEW020 SCT030 13/06 Q1029
cycle: 17

Charleroi / Gosselies, Belgium (EBCI) 50-28N 004-27E 192M
Nov 13, 2018 - 12:20 PM EST / 2018.11.13 1720 UTC
Wind: from the SSW (210 degrees) at 10 MPH (9 KT):0
Visibility: greater than 7 mile(s):0
Sky conditions: partly cloudy
Temperature: 50 F (10 C)
Dew Point: 44 F (7 C)
Relative Humidity: 81%
Pressure (altimeter): 30.36 in. Hg (1028 hPa)
ob: EBCI 131720Z 21009KT 9999 FEW025 SCT040 10/07 Q1028 NOSIG
cycle: 17

Bruxelles National, Belgium (EBBR) 50-54N 004-32E 58M
Nov 13, 2018 - 12:20 PM EST / 2018.11.13 1720 UTC
Wind: from the SW (220 degrees) at 9 MPH (8 KT):0
Visibility: greater than 7 mile(s):0
Sky conditions: mostly clear
Temperature: 50 F (10 C)
Dew Point: 46 F (8 C)
Relative Humidity: 87%
Pressure (altimeter): 30.33 in. Hg (1027 hPa)
ob: EBBR 131720Z 22008KT 9999 FEW028 10/08 Q1027 NOSIG
cycle: 17

Koksijde, Belgium (EBFN) 51-05N 002-39E 9M
Nov 13, 2018 - 12:25 PM EST / 2018.11.13 1725 UTC
Wind: from the S (190 degrees) at 9 MPH (8 KT):0
Visibility: greater than 7 mile(s):0
Temperature: 50 F (10 C)
Dew Point: 46 F (8 C)
Relative Humidity: 87%
Pressure (altimeter): 30.30 in. Hg (1026 hPa)
ob: EBFN 131725Z AUTO 19008KT 9999 NCD 10/08 Q1026 BLU
cycle: 17

Poznan, Poland (EPPO) 52-25N 016-50E 92M
Nov 13, 2018 - 12:30 PM EST / 2018.11.13 1730 UTC
Wind: from the WSW (250 degrees) at 8 MPH (7 KT):0
Visibility: greater than 7 mile(s):0
Sky conditions: mostly cloudy
Temperature: 50 F (10 C)
Dew Point: 50 F (10 C)
Relative Humidity: 100%
Pressure (altimeter): 30.21 in. Hg (1023 hPa)
ob: EPPO 131730Z 25007KT 9999 BKN006 10/10 Q1023 
cycle: 17



Coucher du Soleil:
17:01:19

Lever de Lune:
12:19:03 12/11/18

Coucher de Lune:
20:44:44 12/11/18

Premier Quartier 15 novembre 2018
Pleine Lune 23 novembre 2018
Dernier Quartier 30 novembre 2018
Nouvelle Lune 7 décembre 2018
Âge de lune : 5 jours,0 heures,36 minutes,26%
Les heures du jour possible étaient aujourd’hui 09:09